Time;durP1;ratioP1;P1;durP2;ratioP2;P2;SDS_P1;SDS_P2;PMS_P1;PMS_P2;Temp;Humidity;BMP_temperature;BMP_pressure;BME280_temperature;BME280_humidity;BME280_pressure;Samples;Min_cycle;Max_cycle;Signal;HPM_P1;HPM_P2
2023/04/03 00:00:28;;;;;;;3.22;1.77;;;;;;;;;;7387519;19;20464;-73
2023/04/03 00:02:53;;;;;;;3.95;1.92;;;;;;;;;;7387458;19;20002;-73
2023/04/03 00:05:19;;;;;;;3.45;1.70;;;;;;;;;;7387336;19;20557;-73
2023/04/03 00:07:45;;;;;;;6.72;1.98;;;;;;;;;;7386062;19;20524;-73
2023/04/03 00:10:10;;;;;;;3.47;1.80;;;;;;;;;;7386723;19;20317;-74
2023/04/03 00:12:35;;;;;;;5.60;1.73;;;;;;;;;;7388124;19;20667;-74
2023/04/03 00:15:01;;;;;;;4.45;1.70;;;;;;;;;;7385056;19;20075;-74
2023/04/03 00:17:26;;;;;;;2.63;1.90;;;;;;;;;;7385806;19;19999;-74
2023/04/03 00:19:51;;;;;;;2.85;1.60;;;;;;;;;;7386883;19;20023;-74
2023/04/03 00:22:17;;;;;;;4.70;1.70;;;;;;;;;;7386436;19;19999;-74
2023/04/03 00:24:42;;;;;;;2.58;1.50;;;;;;;;;;7386322;19;20015;-73
2023/04/03 00:27:07;;;;;;;3.00;1.60;;;;;;;;;;7386036;19;19999;-73
2023/04/03 00:29:33;;;;;;;5.13;1.88;;;;;;;;;;7386026;19;20062;-76
2023/04/03 00:31:58;;;;;;;6.93;1.85;;;;;;;;;;7386205;19;20006;-73
2023/04/03 00:34:24;;;;;;;4.82;2.05;;;;;;;;;;7384820;19;20563;-73
2023/04/03 00:36:49;;;;;;;1.55;1.35;;;;;;;;;;7386107;19;20334;-75
2023/04/03 00:39:14;;;;;;;3.55;1.83;;;;;;;;;;7385647;19;20054;-76
2023/04/03 00:41:40;;;;;;;4.70;1.92;;;;;;;;;;7383561;19;20106;-74
2023/04/03 00:44:42;;;;;;;2.53;2.03;;;;;;;;;;7385725;19;20001;-74
2023/04/03 00:47:11;;;;;;;3.45;1.80;;;;;;;;;;7384912;19;20019;-76
2023/04/03 00:49:37;;;;;;;3.10;1.77;;;;;;;;;;7385580;19;20071;-75
2023/04/03 00:52:03;;;;;;;3.95;2.03;;;;;;;;;;7385368;19;20985;-75
2023/04/03 00:54:29;;;;;;;4.65;1.67;;;;;;;;;;7383734;19;20069;-74
2023/04/03 00:56:56;;;;;;;4.28;1.65;;;;;;;;;;7388695;19;20033;-73
2023/04/03 00:59:26;;;;;;;4.28;2.00;;;;;;;;;;7385501;19;20018;-75
2023/04/03 01:01:56;;;;;;;2.72;1.58;;;;;;;;;;7385140;19;20019;-75
2023/04/03 01:04:34;;;;;;;2.80;1.77;;;;;;;;;;7385251;19;20485;-74
2023/04/03 01:07:07;;;;;;;4.68;2.22;;;;;;;;;;7384866;19;20003;-74
2023/04/03 01:09:34;;;;;;;3.65;1.50;;;;;;;;;;7383912;19;20014;-74
2023/04/03 01:12:17;;;;;;;5.25;1.75;;;;;;;;;;7385067;19;19999;-75
2023/04/03 01:14:43;;;;;;;3.53;1.95;;;;;;;;;;7383410;19;20106;-75
2023/04/03 01:17:26;;;;;;;4.88;1.75;;;;;;;;;;7386512;19;20026;-75
2023/04/03 01:20:17;;;;;;;4.53;1.58;;;;;;;;;;7383505;19;20040;-73
2023/04/03 01:23:01;;;;;;;6.88;1.95;;;;;;;;;;7387560;19;19998;-73
2023/04/03 01:25:26;;;;;;;5.45;1.52;;;;;;;;;;7385392;19;20003;-74
2023/04/03 01:27:51;;;;;;;2.85;1.67;;;;;;;;;;7382257;19;20460;-74
2023/04/03 01:30:19;;;;;;;3.25;1.73;;;;;;;;;;7385518;19;19999;-74
2023/04/03 01:32:44;;;;;;;3.85;1.67;;;;;;;;;;7385797;19;19998;-74
2023/04/03 01:35:10;;;;;;;5.65;1.92;;;;;;;;;;7385742;19;20001;-73
2023/04/03 01:37:36;;;;;;;3.13;1.38;;;;;;;;;;7383996;19;20002;-74
2023/04/03 01:40:02;;;;;;;4.07;1.45;;;;;;;;;;7385685;19;19994;-73
2023/04/03 01:42:28;;;;;;;4.65;1.70;;;;;;;;;;7384336;19;20027;-73
2023/04/03 01:44:53;;;;;;;4.38;2.25;;;;;;;;;;7384922;19;19995;-74
2023/04/03 01:47:19;;;;;;;4.50;1.70;;;;;;;;;;7384560;19;20313;-74
2023/04/03 01:49:44;;;;;;;4.60;1.38;;;;;;;;;;7384596;19;20002;-74
2023/04/03 01:52:10;;;;;;;4.25;1.90;;;;;;;;;;7382522;19;20095;-74
2023/04/03 01:54:35;;;;;;;4.22;2.00;;;;;;;;;;7391519;19;20628;-75
2023/04/03 01:57:00;;;;;;;2.35;1.50;;;;;;;;;;7391723;19;20006;-75
2023/04/03 01:59:26;;;;;;;4.43;1.73;;;;;;;;;;7391978;19;20070;-75
2023/04/03 02:01:51;;;;;;;3.63;1.88;;;;;;;;;;7391354;19;19995;-75
2023/04/03 02:04:16;;;;;;;4.43;1.70;;;;;;;;;;7391590;19;20428;-75
2023/04/03 02:06:41;;;;;;;2.78;1.55;;;;;;;;;;7391178;19;20001;-75
2023/04/03 02:09:07;;;;;;;2.67;1.48;;;;;;;;;;7390778;19;19999;-75
2023/04/03 02:11:32;;;;;;;5.70;1.75;;;;;;;;;;7391486;19;20031;-75
2023/04/03 02:13:58;;;;;;;4.15;1.52;;;;;;;;;;7390457;19;20322;-75
2023/04/03 02:16:23;;;;;;;4.38;1.67;;;;;;;;;;7391403;19;20700;-74
2023/04/03 02:18:49;;;;;;;5.72;1.83;;;;;;;;;;7388146;19;19995;-75
2023/04/03 02:21:15;;;;;;;3.22;1.38;;;;;;;;;;7394082;19;20002;-74
2023/04/03 02:23:40;;;;;;;3.65;1.80;;;;;;;;;;7390865;19;19990;-74
2023/04/03 02:26:10;;;;;;;4.57;1.70;;;;;;;;;;7390759;19;19999;-75
2023/04/03 02:28:36;;;;;;;3.92;1.90;;;;;;;;;;7388189;19;20029;-75
2023/04/03 02:31:03;;;;;;;4.30;1.67;;;;;;;;;;7389679;19;20002;-75
2023/04/03 02:33:29;;;;;;;3.30;1.52;;;;;;;;;;7388330;19;20007;-75
2023/04/03 02:35:55;;;;;;;1.15;1.00;;;;;;;;;;7393631;19;20013;-75
2023/04/03 02:38:21;;;;;;;3.70;1.60;;;;;;;;;;7391028;19;20059;-75
2023/04/03 02:40:47;;;;;;;4.47;1.70;;;;;;;;;;7393356;19;20006;-75
2023/04/03 02:43:12;;;;;;;4.70;1.80;;;;;;;;;;7389930;19;19999;-74
2023/04/03 02:45:37;;;;;;;3.08;1.17;;;;;;;;;;7389999;19;20349;-75
2023/04/03 02:48:03;;;;;;;2.15;1.27;;;;;;;;;;7387994;19;20006;-74
2023/04/03 02:50:28;;;;;;;2.00;1.20;;;;;;;;;;7389161;19;20003;-73
2023/04/03 02:52:53;;;;;;;2.20;1.10;;;;;;;;;;7389296;19;20533;-73
2023/04/03 02:55:19;;;;;;;4.72;1.73;;;;;;;;;;7389419;19;20002;-74
2023/04/03 02:57:44;;;;;;;3.88;1.92;;;;;;;;;;7388268;19;20006;-73
2023/04/03 03:00:10;;;;;;;4.70;1.95;;;;;;;;;;7388653;19;20006;-74
2023/04/03 03:02:35;;;;;;;5.30;1.70;;;;;;;;;;7389488;19;19998;-74
2023/04/03 03:05:01;;;;;;;1.52;1.20;;;;;;;;;;7385976;19;20003;-73
2023/04/03 03:07:26;;;;;;;4.35;1.83;;;;;;;;;;7391574;19;20010;-73
2023/04/03 03:09:51;;;;;;;3.80;1.55;;;;;;;;;;7388574;19;19999;-73
2023/04/03 03:12:21;;;;;;;3.05;1.70;;;;;;;;;;7388464;19;20454;-74
2023/04/03 03:14:46;;;;;;;2.47;1.52;;;;;;;;;;7386745;19;20206;-74
2023/04/03 03:17:12;;;;;;;5.65;1.67;;;;;;;;;;7387649;19;20368;-74
2023/04/03 03:19:37;;;;;;;3.15;1.60;;;;;;;;;;7388230;19;20005;-74
2023/04/03 03:22:02;;;;;;;1.77;1.20;;;;;;;;;;7387895;19;20003;-74
2023/04/03 03:24:28;;;;;;;3.83;1.08;;;;;;;;;;7390579;19;20086;-74
2023/04/03 03:26:53;;;;;;;4.30;1.77;;;;;;;;;;7388584;19;20010;-74
2023/04/03 03:29:19;;;;;;;3.38;1.52;;;;;;;;;;7388341;19;20003;-74
2023/04/03 03:31:44;;;;;;;3.65;1.42;;;;;;;;;;7389984;19;20073;-74
2023/04/03 03:34:09;;;;;;;1.75;1.30;;;;;;;;;;7386983;19;19995;-74
2023/04/03 03:36:35;;;;;;;5.32;1.55;;;;;;;;;;7388023;19;20464;-74
2023/04/03 03:39:00;;;;;;;4.72;1.67;;;;;;;;;;7385682;19;20019;-74
2023/04/03 03:41:26;;;;;;;6.45;1.45;;;;;;;;;;7387468;19;20003;-74
2023/04/03 03:43:51;;;;;;;2.97;1.58;;;;;;;;;;7386078;19;20065;-73
2023/04/03 03:46:16;;;;;;;3.17;1.25;;;;;;;;;;7388669;19;20010;-74
2023/04/03 03:48:42;;;;;;;5.32;1.60;;;;;;;;;;7385883;19;20007;-74
2023/04/03 03:51:07;;;;;;;3.60;1.30;;;;;;;;;;7387556;19;20820;-73
2023/04/03 03:53:32;;;;;;;2.28;1.33;;;;;;;;;;7387155;19;20018;-74
2023/04/03 03:55:58;;;;;;;5.88;1.55;;;;;;;;;;7387992;19;20051;-74
2023/04/03 03:58:23;;;;;;;3.67;1.75;;;;;;;;;;7386334;19;20012;-75
2023/04/03 04:00:48;;;;;;;6.28;1.55;;;;;;;;;;7387150;19;20704;-73
2023/04/03 04:03:14;;;;;;;4.50;1.67;;;;;;;;;;7385776;19;20365;-73
2023/04/03 04:05:39;;;;;;;4.00;1.33;;;;;;;;;;7386208;19;20421;-74
2023/04/03 04:08:05;;;;;;;3.40;1.58;;;;;;;;;;7384816;19;20025;-73
2023/04/03 04:10:30;;;;;;;1.92;1.20;;;;;;;;;;7386535;19;19998;-74
2023/04/03 04:12:55;;;;;;;4.25;1.20;;;;;;;;;;7387459;19;20182;-74
2023/04/03 04:15:21;;;;;;;1.58;0.75;;;;;;;;;;7387401;19;20471;-74
2023/04/03 04:17:47;;;;;;;1.75;0.82;;;;;;;;;;7383721;19;20002;-73
2023/04/03 04:20:12;;;;;;;2.05;1.20;;;;;;;;;;7386103;19;20003;-74
2023/04/03 04:22:38;;;;;;;3.53;1.40;;;;;;;;;;7387571;19;20001;-74
2023/04/03 04:25:04;;;;;;;6.10;1.50;;;;;;;;;;7387393;19;20316;-74
2023/04/03 04:27:29;;;;;;;4.72;2.00;;;;;;;;;;7385069;19;20010;-74
2023/04/03 04:29:55;;;;;;;4.35;1.20;;;;;;;;;;7390871;19;20020;-74
2023/04/03 04:32:20;;;;;;;5.72;1.40;;;;;;;;;;7386684;19;20348;-74
2023/04/03 04:34:45;;;;;;;3.85;1.15;;;;;;;;;;7384307;19;20018;-74
2023/04/03 04:37:11;;;;;;;4.57;1.25;;;;;;;;;;7385120;19;19998;-74
2023/04/03 04:39:36;;;;;;;2.65;1.20;;;;;;;;;;7387661;19;20093;-73
2023/04/03 04:42:02;;;;;;;4.75;1.08;;;;;;;;;;7386267;19;20011;-75
2023/04/03 04:44:27;;;;;;;1.50;1.10;;;;;;;;;;7386085;19;20362;-74
2023/04/03 04:46:52;;;;;;;3.85;1.45;;;;;;;;;;7385955;19;20002;-74
2023/04/03 04:49:18;;;;;;;5.25;1.58;;;;;;;;;;7385563;19;20001;-74
2023/04/03 04:51:43;;;;;;;2.17;1.20;;;;;;;;;;7388308;19;20061;-73
2023/04/03 04:54:09;;;;;;;3.40;1.33;;;;;;;;;;7385086;19;19997;-74
2023/04/03 04:56:34;;;;;;;2.72;1.30;;;;;;;;;;7386111;19;20001;-74
2023/04/03 04:59:01;;;;;;;2.03;1.23;;;;;;;;;;7379539;19;20001;-74
2023/04/03 05:01:26;;;;;;;6.65;1.75;;;;;;;;;;7381623;19;19994;-73
2023/04/03 05:03:52;;;;;;;1.80;1.65;;;;;;;;;;7380683;19;20333;-73
2023/04/03 05:06:17;;;;;;;7.30;1.85;;;;;;;;;;7383033;19;20002;-73
2023/04/03 05:08:42;;;;;;;6.00;1.70;;;;;;;;;;7382131;19;20339;-73
2023/04/03 05:11:08;;;;;;;6.13;1.92;;;;;;;;;;7382115;19;20033;-73
2023/04/03 05:13:33;;;;;;;5.40;1.55;;;;;;;;;;7384829;19;19994;-74
2023/04/03 05:15:59;;;;;;;3.30;1.27;;;;;;;;;;7385533;19;20415;-74
2023/04/03 05:18:24;;;;;;;3.75;1.80;;;;;;;;;;7383461;19;20621;-74
2023/04/03 05:20:52;;;;;;;2.75;1.08;;;;;;;;;;7385318;19;20058;-74
2023/04/03 05:23:18;;;;;;;3.63;1.48;;;;;;;;;;7385012;19;19994;-73
2023/04/03 05:25:45;;;;;;;2.28;1.10;;;;;;;;;;7388628;19;20014;-73
2023/04/03 05:28:10;;;;;;;3.53;1.50;;;;;;;;;;7385618;19;20002;-73
2023/04/03 05:30:36;;;;;;;4.13;1.17;;;;;;;;;;7392652;19;20088;-74
2023/04/03 05:33:01;;;;;;;6.00;1.52;;;;;;;;;;7394130;19;19990;-70
2023/04/03 05:35:27;;;;;;;7.38;1.60;;;;;;;;;;7390304;19;20011;-73
2023/04/03 05:37:52;;;;;;;5.00;1.95;;;;;;;;;;7393677;19;20015;-72
2023/04/03 05:40:18;;;;;;;3.55;1.30;;;;;;;;;;7395631;19;20001;-72
2023/04/03 05:42:44;;;;;;;16.08;1.75;;;;;;;;;;7396198;19;20501;-72
2023/04/03 05:45:10;;;;;;;9.57;1.98;;;;;;;;;;7392404;19;20007;-73
2023/04/03 05:47:35;;;;;;;8.07;1.75;;;;;;;;;;7385688;19;19999;-73
2023/04/03 05:50:00;;;;;;;2.40;1.40;;;;;;;;;;7396923;19;20002;-73
2023/04/03 05:52:29;;;;;;;7.28;1.90;;;;;;;;;;7394390;19;19994;-72
2023/04/03 05:54:55;;;;;;;1.88;1.17;;;;;;;;;;7392678;19;19994;-72
2023/04/03 05:57:21;;;;;;;4.57;1.70;;;;;;;;;;7393792;19;20007;-72
2023/04/03 05:59:47;;;;;;;3.83;1.65;;;;;;;;;;7392553;19;20154;-72
2023/04/03 06:02:16;;;;;;;6.88;2.35;;;;;;;;;;7391277;19;20098;-72
2023/04/03 06:04:41;;;;;;;2.58;1.33;;;;;;;;;;7391741;19;20002;-72
2023/04/03 06:07:11;;;;;;;3.97;1.70;;;;;;;;;;7390856;19;20005;-72
2023/04/03 06:09:37;;;;;;;5.32;1.40;;;;;;;;;;7388551;19;20019;-72
2023/04/03 06:12:02;;;;;;;2.22;1.38;;;;;;;;;;7390331;19;19999;-72
2023/04/03 06:14:27;;;;;;;4.20;1.88;;;;;;;;;;7390045;19;20002;-73
2023/04/03 06:16:53;;;;;;;6.07;1.63;;;;;;;;;;7392152;19;20039;-73
2023/04/03 06:19:20;;;;;;;2.35;1.23;;;;;;;;;;7393757;19;19991;-73
2023/04/03 06:21:46;;;;;;;5.30;1.58;;;;;;;;;;7392285;19;20099;-73
2023/04/03 06:24:15;;;;;;;3.88;1.58;;;;;;;;;;7391215;19;20023;-73
2023/04/03 06:26:40;;;;;;;5.53;2.22;;;;;;;;;;7393083;19;20014;-72
2023/04/03 06:29:05;;;;;;;4.38;1.65;;;;;;;;;;7393187;19;20013;-72
2023/04/03 06:31:31;;;;;;;7.05;2.92;;;;;;;;;;7391402;19;19998;-72
2023/04/03 06:33:56;;;;;;;6.43;2.53;;;;;;;;;;7395409;19;19998;-72
2023/04/03 06:36:22;;;;;;;5.53;2.00;;;;;;;;;;7392035;19;20432;-72
2023/04/03 06:38:48;;;;;;;4.05;1.73;;;;;;;;;;7389953;19;20371;-71
2023/04/03 06:41:14;;;;;;;4.82;1.88;;;;;;;;;;7393420;19;20329;-72
2023/04/03 06:43:39;;;;;;;5.45;1.80;;;;;;;;;;7391895;19;20006;-72
2023/04/03 06:46:05;;;;;;;4.13;2.10;;;;;;;;;;7394813;19;20005;-72
2023/04/03 06:48:30;;;;;;;2.63;1.40;;;;;;;;;;7389601;19;20006;-72
2023/04/03 06:50:56;;;;;;;8.10;2.40;;;;;;;;;;7394252;19;19998;-73
2023/04/03 06:53:21;;;;;;;5.18;1.75;;;;;;;;;;7390935;19;20035;-72
2023/04/03 06:55:47;;;;;;;6.85;1.83;;;;;;;;;;7394132;19;20364;-74
2023/04/03 06:58:13;;;;;;;7.60;1.65;;;;;;;;;;7389822;19;20003;-73
2023/04/03 07:00:38;;;;;;;4.10;1.80;;;;;;;;;;7391872;19;20009;-72
2023/04/03 07:03:04;;;;;;;2.78;1.40;;;;;;;;;;7391203;19;20003;-74
2023/04/03 07:05:30;;;;;;;5.07;1.95;;;;;;;;;;7392414;19;19995;-73
2023/04/03 07:07:55;;;;;;;5.15;2.47;;;;;;;;;;7390942;19;20005;-74
2023/04/03 07:10:21;;;;;;;5.25;2.00;;;;;;;;;;7392805;19;20066;-71
2023/04/03 07:12:46;;;;;;;5.18;1.88;;;;;;;;;;7393970;19;20530;-71
2023/04/03 07:15:12;;;;;;;6.63;2.35;;;;;;;;;;7392915;19;20023;-71
2023/04/03 07:17:38;;;;;;;8.15;1.88;;;;;;;;;;7389530;19;20006;-71
2023/04/03 07:20:03;;;;;;;5.05;1.52;;;;;;;;;;7388961;19;20005;-71
2023/04/03 07:22:29;;;;;;;3.05;1.58;;;;;;;;;;7391160;19;19999;-71
2023/04/03 07:24:55;;;;;;;4.10;2.00;;;;;;;;;;7391472;19;19995;-71
2023/04/03 07:27:20;;;;;;;4.65;2.30;;;;;;;;;;7392889;19;19999;-71
2023/04/03 07:29:47;;;;;;;3.78;2.15;;;;;;;;;;7390800;19;20148;-71
2023/04/03 07:32:13;;;;;;;6.38;1.98;;;;;;;;;;7392430;19;20018;-71
2023/04/03 07:34:39;;;;;;;7.72;1.70;;;;;;;;;;7390950;19;20066;-71
2023/04/03 07:37:04;;;;;;;4.38;1.70;;;;;;;;;;7390862;19;20468;-72
2023/04/03 07:39:30;;;;;;;2.15;1.40;;;;;;;;;;7392187;19;19999;-72
2023/04/03 07:41:56;;;;;;;2.58;1.52;;;;;;;;;;7392164;19;20363;-72
2023/04/03 07:44:21;;;;;;;2.28;1.30;;;;;;;;;;7390932;19;19998;-72
2023/04/03 07:46:48;;;;;;;8.35;2.20;;;;;;;;;;7388580;19;20421;-72
2023/04/03 07:49:13;;;;;;;3.15;1.55;;;;;;;;;;7392655;19;20054;-72
2023/04/03 07:51:39;;;;;;;4.75;1.98;;;;;;;;;;7389946;19;20002;-72
2023/04/03 07:54:05;;;;;;;9.25;2.53;;;;;;;;;;7390772;19;20006;-72
2023/04/03 07:56:31;;;;;;;5.68;2.03;;;;;;;;;;7391534;19;19991;-71
2023/04/03 07:58:56;;;;;;;10.85;2.38;;;;;;;;;;7388746;19;19998;-72
2023/04/03 08:01:25;;;;;;;6.63;2.08;;;;;;;;;;7388621;19;20090;-72
2023/04/03 08:03:50;;;;;;;3.78;1.70;;;;;;;;;;7389943;19;19994;-72
2023/04/03 08:06:16;;;;;;;6.03;2.22;;;;;;;;;;7391543;19;20039;-72
2023/04/03 08:08:41;;;;;;;6.05;2.22;;;;;;;;;;7387929;19;20066;-72
2023/04/03 08:11:07;;;;;;;3.17;1.80;;;;;;;;;;7389212;19;20025;-73
2023/04/03 08:13:35;;;;;;;4.25;2.00;;;;;;;;;;7389310;19;20068;-72
2023/04/03 08:16:08;;;;;;;3.13;1.42;;;;;;;;;;7394274;19;20058;-72
2023/04/03 08:18:34;;;;;;;5.53;2.05;;;;;;;;;;7394279;19;20002;-71
2023/04/03 08:21:00;;;;;;;6.85;2.08;;;;;;;;;;7387503;19;19994;-72
2023/04/03 08:23:26;;;;;;;5.80;2.25;;;;;;;;;;7398511;19;20015;-71
2023/04/03 08:25:51;;;;;;;4.60;1.92;;;;;;;;;;7393864;19;19998;-71
2023/04/03 08:28:17;;;;;;;4.35;1.90;;;;;;;;;;7391093;19;20008;-71
2023/04/03 08:30:42;;;;;;;2.65;1.50;;;;;;;;;;7388309;19;20014;-72
2023/04/03 08:33:08;;;;;;;5.63;2.03;;;;;;;;;;7391513;19;20056;-71
2023/04/03 08:35:39;;;;;;;5.25;1.85;;;;;;;;;;7392847;19;20023;-72
2023/04/03 08:38:04;;;;;;;6.43;1.88;;;;;;;;;;7392127;19;20002;-72
2023/04/03 08:40:30;;;;;;;5.53;2.00;;;;;;;;;;7392745;19;19991;-71
2023/04/03 08:43:30;;;;;;;4.03;1.75;;;;;;;;;;7389056;19;20026;-70
2023/04/03 08:45:59;;;;;;;2.55;1.70;;;;;;;;;;7390764;19;19994;-71
2023/04/03 08:48:30;;;;;;;3.95;1.70;;;;;;;;;;7391267;19;20414;-72
2023/04/03 08:51:05;;;;;;;4.80;2.13;;;;;;;;;;7391667;19;20070;-71
2023/04/03 08:53:34;;;;;;;4.20;1.75;;;;;;;;;;7390968;19;20097;-72
2023/04/03 08:56:04;;;;;;;5.60;2.03;;;;;;;;;;7398804;19;20292;-71
2023/04/03 08:58:33;;;;;;;3.53;1.52;;;;;;;;;;7389522;19;20386;-73
2023/04/03 09:01:03;;;;;;;3.33;1.63;;;;;;;;;;7388545;19;20456;-71
2023/04/03 09:03:31;;;;;;;5.13;1.90;;;;;;;;;;7387723;19;20015;-71
2023/04/03 09:06:13;;;;;;;5.75;2.03;;;;;;;;;;7390556;19;20023;-72
2023/04/03 09:09:00;;;;;;;3.42;1.58;;;;;;;;;;7386829;19;20018;-71
2023/04/03 09:11:36;;;;;;;4.05;1.60;;;;;;;;;;7388787;19;19994;-73
2023/04/03 09:14:13;;;;;;;6.90;2.20;;;;;;;;;;7389125;19;19999;-72
2023/04/03 09:16:57;;;;;;;7.30;2.00;;;;;;;;;;7387821;19;19995;-71
2023/04/03 09:19:32;;;;;;;9.73;2.13;;;;;;;;;;7389082;19;19995;-72
2023/04/03 09:22:26;;;;;;;4.60;1.83;;;;;;;;;;7387730;19;20110;-71
2023/04/03 09:25:10;;;;;;;3.05;1.77;;;;;;;;;;7390920;19;20269;-72
2023/04/03 09:27:35;;;;;;;4.50;1.50;;;;;;;;;;7389051;19;19995;-73
2023/04/03 09:30:01;;;;;;;3.83;1.83;;;;;;;;;;7388762;19;20429;-71
2023/04/03 09:32:32;;;;;;;4.40;1.90;;;;;;;;;;7389863;19;20005;-72
2023/04/03 09:35:04;;;;;;;4.30;1.80;;;;;;;;;;7386282;19;20027;-71
2023/04/03 09:37:40;;;;;;;2.47;1.45;;;;;;;;;;7387569;19;20038;-72
2023/04/03 09:40:25;;;;;;;5.88;2.03;;;;;;;;;;7389016;19;19999;-71
2023/04/03 09:42:53;;;;;;;5.80;1.80;;;;;;;;;;7386773;19;20015;-71
2023/04/03 09:45:25;;;;;;;2.20;1.25;;;;;;;;;;7386305;19;20471;-72
2023/04/03 09:48:23;;;;;;;3.15;1.40;;;;;;;;;;7385935;19;20022;-70
2023/04/03 09:51:01;;;;;;;5.65;2.00;;;;;;;;;;7385784;19;19991;-72
2023/04/03 09:53:32;;;;;;;4.43;1.67;;;;;;;;;;7387065;19;20007;-71
2023/04/03 09:55:58;;;;;;;4.03;1.90;;;;;;;;;;7388417;19;19991;-71
2023/04/03 09:58:36;;;;;;;6.15;1.45;;;;;;;;;;7386028;19;20046;-73
2023/04/03 10:01:03;;;;;;;3.40;1.92;;;;;;;;;;7386883;19;20014;-73
2023/04/03 10:03:35;;;;;;;3.83;1.77;;;;;;;;;;7386752;19;20034;-72
2023/04/03 10:06:02;;;;;;;6.88;1.88;;;;;;;;;;7364735;19;20014;-73
2023/04/03 10:08:30;;;;;;;4.10;1.95;;;;;;;;;;7388845;19;20006;-72
2023/04/03 10:11:17;;;;;;;4.32;1.90;;;;;;;;;;7383093;19;20285;-73
2023/04/03 10:13:56;;;;;;;3.70;1.80;;;;;;;;;;7384283;19;20118;-74
2023/04/03 10:16:46;;;;;;;4.50;1.85;;;;;;;;;;7393620;19;20006;-72
2023/04/03 10:19:23;;;;;;;8.57;2.53;;;;;;;;;;7388489;19;20017;-72
2023/04/03 10:21:57;;;;;;;8.93;2.28;;;;;;;;;;7390984;19;20039;-72
2023/04/03 10:25:01;;;;;;;4.88;1.90;;;;;;;;;;7393361;19;20009;-73
2023/04/03 10:28:15;;;;;;;8.77;1.92;;;;;;;;;;7389769;19;20015;-72
2023/04/03 10:31:11;;;;;;;2.80;1.80;;;;;;;;;;7389617;19;19999;-72
2023/04/03 10:33:43;;;;;;;5.97;1.90;;;;;;;;;;7393192;19;20003;-74
2023/04/03 10:36:30;;;;;;;4.47;1.70;;;;;;;;;;7394766;19;19998;-72
2023/04/03 10:39:12;;;;;;;8.80;2.05;;;;;;;;;;7389902;19;20020;-74
2023/04/03 10:42:32;;;;;;;6.10;2.10;;;;;;;;;;7394302;19;20037;-73
2023/04/03 10:45:18;;;;;;;3.30;2.22;;;;;;;;;;7389710;19;20117;-72
2023/04/03 10:48:06;;;;;;;4.40;1.80;;;;;;;;;;7390370;19;20016;-73
2023/04/03 10:50:57;;;;;;;5.15;1.83;;;;;;;;;;7391926;19;20327;-72
2023/04/03 10:53:57;;;;;;;5.30;1.73;;;;;;;;;;7393616;19;20006;-73
2023/04/03 10:56:25;;;;;;;4.55;2.30;;;;;;;;;;7397199;19;20103;-73
2023/04/03 10:58:58;;;;;;;3.75;1.83;;;;;;;;;;7391835;19;19995;-74
2023/04/03 11:01:31;;;;;;;2.97;1.60;;;;;;;;;;7392800;19;20019;-74
2023/04/03 11:03:58;;;;;;;3.92;1.95;;;;;;;;;;7395942;19;19999;-76
2023/04/03 11:06:31;;;;;;;4.18;1.92;;;;;;;;;;7395801;19;20479;-73
2023/04/03 11:09:03;;;;;;;6.85;2.00;;;;;;;;;;7391574;19;20015;-74
2023/04/03 11:11:39;;;;;;;4.30;1.80;;;;;;;;;;7393541;19;19995;-72
2023/04/03 11:14:25;;;;;;;6.22;2.25;;;;;;;;;;7393867;19;20465;-73
2023/04/03 11:17:23;;;;;;;3.00;1.70;;;;;;;;;;7394123;19;19994;-75
2023/04/03 11:20:17;;;;;;;6.78;2.13;;;;;;;;;;7393790;19;20050;-71
2023/04/03 11:22:47;;;;;;;3.75;1.90;;;;;;;;;;7396581;19;19994;-72
2023/04/03 11:25:12;;;;;;;5.82;2.40;;;;;;;;;;7397085;19;19998;-72
2023/04/03 11:27:45;;;;;;;3.83;1.92;;;;;;;;;;7395908;19;20011;-73
2023/04/03 11:30:22;;;;;;;5.38;2.15;;;;;;;;;;7397632;19;20018;-72
2023/04/03 11:33:09;;;;;;;2.95;1.55;;;;;;;;;;7394039;19;20456;-72
2023/04/03 11:35:36;;;;;;;3.03;1.98;;;;;;;;;;7396232;19;20032;-73
2023/04/03 11:38:06;;;;;;;1.80;1.40;;;;;;;;;;7394914;19;20009;-74
2023/04/03 11:40:34;;;;;;;6.68;1.80;;;;;;;;;;7396422;19;19998;-73
2023/04/03 11:42:59;;;;;;;4.78;2.15;;;;;;;;;;7392563;19;20355;-73
2023/04/03 11:45:32;;;;;;;5.65;2.03;;;;;;;;;;7395265;19;19998;-73
2023/04/03 11:48:25;;;;;;;5.68;2.25;;;;;;;;;;7392655;19;20032;-73
2023/04/03 11:50:51;;;;;;;6.78;2.42;;;;;;;;;;7392010;19;20673;-73
2023/04/03 11:53:16;;;;;;;17.35;2.60;;;;;;;;;;7392615;19;20025;-75
2023/04/03 11:55:52;;;;;;;5.57;1.80;;;;;;;;;;7393985;19;20019;-74
2023/04/03 11:58:26;;;;;;;3.15;1.90;;;;;;;;;;7393950;19;19999;-73
2023/04/03 12:00:52;;;;;;;4.53;1.95;;;;;;;;;;7389818;19;20019;-74
2023/04/03 12:03:26;;;;;;;4.05;2.00;;;;;;;;;;7392421;19;20358;-74
2023/04/03 12:05:53;;;;;;;5.38;2.25;;;;;;;;;;7393878;19;19998;-74
2023/04/03 12:08:50;;;;;;;4.78;1.80;;;;;;;;;;7393011;19;19999;-73
2023/04/03 12:11:18;;;;;;;3.67;1.80;;;;;;;;;;7389708;19;19998;-71
2023/04/03 12:13:49;;;;;;;4.55;2.10;;;;;;;;;;7392379;19;20362;-73
2023/04/03 12:16:32;;;;;;;6.43;2.15;;;;;;;;;;7393886;19;20002;-73
2023/04/03 12:19:03;;;;;;;9.82;2.20;;;;;;;;;;7393788;19;20027;-72
2023/04/03 12:21:44;;;;;;;6.65;2.20;;;;;;;;;;7405079;19;20003;-73
2023/04/03 12:24:10;;;;;;;6.07;2.15;;;;;;;;;;7401215;19;20001;-74
2023/04/03 12:26:44;;;;;;;3.83;1.80;;;;;;;;;;7392177;19;19991;-73
2023/04/03 12:29:28;;;;;;;3.53;1.63;;;;;;;;;;7391599;19;19999;-72
2023/04/03 12:32:10;;;;;;;2.85;1.65;;;;;;;;;;7392672;19;19994;-72
2023/04/03 12:34:57;;;;;;;3.05;1.60;;;;;;;;;;7391219;19;19994;-72
2023/04/03 12:37:35;;;;;;;4.95;1.90;;;;;;;;;;7389804;19;20006;-72
2023/04/03 12:40:18;;;;;;;2.80;1.70;;;;;;;;;;7392223;19;20014;-73
2023/04/03 12:43:20;;;;;;;3.47;1.70;;;;;;;;;;7391945;19;20006;-73
2023/04/03 12:45:48;;;;;;;;;;;;;;;;;;7392702;19;20027;-73
2023/04/03 12:48:22;;;;;;;8.05;1.95;;;;;;;;;;7392198;19;19926;-72
2023/04/03 12:50:49;;;;;;;4.22;1.85;;;;;;;;;;7386662;19;20018;-73
2023/04/03 12:53:17;;;;;;;4.82;2.22;;;;;;;;;;7390656;19;20045;-73
2023/04/03 12:55:43;;;;;;;1.95;1.45;;;;;;;;;;7391111;19;19994;-73
2023/04/03 12:58:21;;;;;;;6.00;1.90;;;;;;;;;;7390575;19;20527;-72
2023/04/03 13:00:46;;;;;;;3.88;1.83;;;;;;;;;;7388503;19;20356;-73
2023/04/03 13:03:24;;;;;;;3.35;1.90;;;;;;;;;;7389702;19;20024;-73
2023/04/03 13:05:50;;;;;;;6.22;1.88;;;;;;;;;;7389916;19;20012;-74
2023/04/03 13:08:18;;;;;;;4.05;1.77;;;;;;;;;;7388908;19;20571;-73
2023/04/03 13:10:59;;;;;;;5.72;2.10;;;;;;;;;;7386301;19;20364;-73
2023/04/03 13:13:26;;;;;;;4.38;1.90;;;;;;;;;;7391137;19;20070;-75
2023/04/03 13:15:54;;;;;;;3.17;1.67;;;;;;;;;;7390925;19;20002;-74
2023/04/03 13:18:32;;;;;;;2.28;1.67;;;;;;;;;;7390627;19;20003;-74
2023/04/03 13:21:15;;;;;;;3.08;1.92;;;;;;;;;;7392653;19;20388;-72
2023/04/03 13:23:44;;;;;;;10.13;2.20;;;;;;;;;;7383606;19;21051;-74
2023/04/03 13:26:10;;;;;;;8.68;1.77;;;;;;;;;;7390837;19;19999;-73
2023/04/03 13:28:36;;;;;;;4.63;1.90;;;;;;;;;;7388098;19;20002;-74
2023/04/03 13:31:10;;;;;;;5.32;2.28;;;;;;;;;;7389297;19;20005;-73
2023/04/03 13:33:39;;;;;;;3.80;1.83;;;;;;;;;;7388929;19;19999;-74
2023/04/03 13:36:28;;;;;;;2.60;1.67;;;;;;;;;;7389478;19;20003;-74
2023/04/03 13:39:04;;;;;;;5.45;1.92;;;;;;;;;;7387064;19;20002;-73
2023/04/03 13:41:33;;;;;;;8.60;2.45;;;;;;;;;;7389810;19;20027;-72
2023/04/03 13:44:21;;;;;;;5.45;2.25;;;;;;;;;;7390307;19;19998;-74
2023/04/03 13:46:58;;;;;;;4.07;1.90;;;;;;;;;;7389549;19;20035;-74
2023/04/03 13:49:26;;;;;;;4.47;2.00;;;;;;;;;;7390264;19;20297;-74
2023/04/03 13:51:52;;;;;;;4.95;2.10;;;;;;;;;;7396548;19;19995;-74
2023/04/03 13:54:22;;;;;;;2.63;1.80;;;;;;;;;;7396441;19;20002;-72
2023/04/03 13:56:54;;;;;;;6.78;1.98;;;;;;;;;;7395565;19;19999;-75
2023/04/03 13:59:38;;;;;;;4.55;1.92;;;;;;;;;;7394889;19;20025;-73
2023/04/03 14:02:03;;;;;;;3.00;1.80;;;;;;;;;;7396419;19;20003;-73
2023/04/03 14:04:50;;;;;;;4.90;2.20;;;;;;;;;;7398789;19;19998;-74
2023/04/03 14:07:17;;;;;;;6.32;2.15;;;;;;;;;;7395115;19;20002;-74
2023/04/03 14:09:43;;;;;;;8.00;2.05;;;;;;;;;;7398012;19;20460;-75
2023/04/03 14:12:17;;;;;;;4.10;1.90;;;;;;;;;;7396049;19;20001;-74
2023/04/03 14:14:43;;;;;;;5.47;2.00;;;;;;;;;;7393372;19;20002;-75
2023/04/03 14:17:28;;;;;;;6.95;2.03;;;;;;;;;;7394568;19;19999;-73
2023/04/03 14:19:55;;;;;;;3.42;1.60;;;;;;;;;;7395562;19;19998;-74
2023/04/03 14:22:29;;;;;;;2.97;1.80;;;;;;;;;;7390476;19;20003;-73
2023/04/03 14:24:55;;;;;;;3.53;1.90;;;;;;;;;;7396652;19;20015;-73
2023/04/03 14:27:29;;;;;;;6.50;2.10;;;;;;;;;;7395400;19;20639;-73
2023/04/03 14:29:58;;;;;;;5.80;2.13;;;;;;;;;;7397100;19;20007;-75
2023/04/03 14:32:24;;;;;;;5.60;2.13;;;;;;;;;;7394222;19;19998;-73
2023/04/03 14:34:52;;;;;;;5.78;2.30;;;;;;;;;;7394405;19;20003;-73
2023/04/03 14:37:22;;;;;;;5.43;2.85;;;;;;;;;;7395121;19;20482;-74
2023/04/03 14:39:49;;;;;;;3.77;2.20;;;;;;;;;;7395825;19;20006;-73
2023/04/03 14:42:24;;;;;;;3.08;1.83;;;;;;;;;;7395519;19;19999;-74
2023/04/03 14:44:50;;;;;;;5.55;2.13;;;;;;;;;;7395292;19;20016;-74
2023/04/03 14:47:20;;;;;;;3.92;2.03;;;;;;;;;;7395152;19;20074;-74
2023/04/03 14:49:45;;;;;;;3.67;1.80;;;;;;;;;;7397013;19;20010;-75
2023/04/03 14:52:33;;;;;;;7.93;3.17;;;;;;;;;;7396655;19;19999;-74
2023/04/03 14:55:00;;;;;;;7.57;2.33;;;;;;;;;;7394408;19;20070;-73
2023/04/03 14:57:28;;;;;;;6.15;1.95;;;;;;;;;;7395452;19;20007;-72
2023/04/03 14:59:53;;;;;;;5.93;1.83;;;;;;;;;;7398276;19;20023;-74